.
WxDataArchive / Data Records for 2012-04-09
2012-04-08 April 2012 2012-04-10

Data Records for Monday, 09 April 2012

Time	Temp	Chill	HIndex	Humid	Dewpt	 Wind 	HiWind	WindDir	Rain 	Barom 
-----	----	-----	------	-----	-----	------	------	-------	-----	----- 
00:00	51.6	51.6	51.6	50	33.6	0	3	292	0.00	30.086 
00:05	51.4	51.4	51.4	50	33.4	0	1	292	0.00	30.086 
00:10	51.3	51.3	51.3	50	33.3	0	3	292	0.00	30.086 
00:15	51.1	51.1	51.1	51	33.6	0	2	292	0.00	30.080 
00:20	50.8	50.8	50.8	52	33.8	0	2	292	0.00	30.080 
00:25	50.7	50.7	50.7	51	33.2	0	2	292	0.00	30.080 
00:30	50.5	50.5	50.5	52	33.5	0	2	292	0.00	30.078 
00:35	50.4	50.4	50.4	52	33.4	0	1	292	0.00	30.078 
00:40	50.2	50.2	50.2	53	33.7	0	1	292	0.00	30.078 
00:45	50.1	50.1	50.1	53	33.6	0	1	292	0.00	30.077 
00:50	49.9	49.9	49.9	53	33.5	0	2	292	0.00	30.077 
00:55	49.9	49.9	49.9	53	33.5	0	1	292	0.00	30.077 
01:00	49.8	49.8	49.8	53	33.4	0	1	0	0.00	30.063 
01:05	49.8	49.8	49.8	54	33.8	0	3	0	0.00	30.063 
01:10	49.6	49.6	49.6	54	33.6	0	1	0	0.00	30.063 
01:15	49.5	49.5	49.5	55	34.0	0	1	0	0.00	30.053 
01:20	49.4	49.4	49.4	56	34.4	0	2	292	0.00	30.053 
01:25	49.2	49.2	49.2	56	34.2	0	2	292	0.00	30.053 
01:30	49.1	49.1	49.1	57	34.5	0	3	292	0.00	30.062 
01:35	48.8	48.8	48.8	58	34.7	0	2	292	0.00	30.062 
01:40	48.5	48.5	48.5	59	34.8	0	0	---	0.00	30.062 
01:45	48.3	48.3	48.3	59	34.6	0	0	---	0.00	30.062 
01:50	48.2	48.2	48.2	60	35.0	0	0	---	0.00	30.062 
01:55	48.0	48.0	48.0	60	34.8	0	0	---	0.00	30.062 
02:00	47.9	47.9	47.9	61	35.1	0	0	---	0.00	30.064 
02:05	47.7	47.7	47.7	61	34.9	0	0	---	0.00	30.064 
02:10	47.7	47.7	47.7	62	35.3	0	0	---	0.00	30.064 
02:15	47.6	47.6	47.6	62	35.2	0	0	---	0.00	30.058 
02:20	47.4	47.4	47.4	63	35.4	0	0	---	0.00	30.058 
02:25	47.3	47.3	47.3	63	35.4	0	0	---	0.00	30.058 
02:30	47.1	47.1	47.1	64	35.6	0	0	---	0.00	30.053 
02:35	47.1	47.1	47.1	64	35.6	0	0	---	0.00	30.053 
02:40	47.1	47.1	47.1	64	35.6	0	0	---	0.00	30.053 
02:45	47.1	47.1	47.1	63	35.2	0	1	292	0.00	30.054 
02:50	47.3	47.3	47.3	63	35.4	0	1	292	0.00	30.054 
02:55	47.4	47.4	47.4	62	35.0	0	1	292	0.00	30.054 
03:00	47.6	47.6	47.6	62	35.2	0	1	292	0.00	30.054 
03:05	47.6	47.6	47.6	62	35.2	0	1	292	0.00	30.054 
03:10	47.6	47.6	47.6	62	35.2	0	1	292	0.00	30.054 
03:15	47.7	47.7	47.7	61	34.9	0	1	292	0.00	30.049 
03:20	48.0	48.0	48.0	60	34.8	0	1	292	0.00	30.049 
03:25	48.3	48.3	48.3	59	34.6	0	2	292	0.00	30.049 
03:30	48.6	48.6	48.6	59	34.9	0	1	292	0.00	30.036 
03:35	48.8	48.8	48.8	58	34.7	0	3	292	0.00	30.036 
03:40	48.9	48.9	48.9	58	34.8	0	2	292	0.00	30.036 
03:45	49.1	49.1	49.1	58	35.0	0	2	292	0.00	30.031 
03:50	49.1	49.1	49.1	58	35.0	1	3	292	0.00	30.031 
03:55	49.1	49.1	49.1	58	35.0	0	1	292	0.00	30.031 
04:00	49.1	49.1	49.1	58	35.0	0	1	292	0.00	30.023 
04:05	49.1	49.1	49.1	58	35.0	0	2	292	0.00	30.023 
04:10	49.1	49.1	49.1	58	35.0	0	1	292	0.00	30.023 
04:15	49.4	49.4	49.4	58	35.2	1	3	270	0.00	30.015 
04:20	49.5	49.5	49.5	58	35.3	0	3	292	0.00	30.015 
04:25	49.5	49.5	49.5	58	35.3	0	3	292	0.00	30.015 
04:30	49.4	49.4	49.4	59	35.7	0	1	292	0.00	30.012 
04:35	49.4	49.4	49.4	59	35.7	0	2	292	0.00	30.012 
04:40	49.4	49.4	49.4	59	35.7	0	2	292	0.00	30.012 
04:45	49.4	49.4	49.4	59	35.7	0	2	292	0.00	30.003 
04:50	49.4	49.4	49.4	59	35.7	0	2	292	0.00	30.003 
04:55	49.4	49.4	49.4	60	36.1	0	2	292	0.00	30.003 
05:00	49.4	49.4	49.4	60	36.1	0	2	292	0.00	30.001 
05:05	49.4	49.4	49.4	60	36.1	0	2	292	0.00	30.001 
05:10	49.4	49.4	49.4	59	35.7	1	2	292	0.00	30.001 
05:15	49.4	49.4	49.4	59	35.7	1	3	292	0.00	29.999 
05:20	49.5	49.5	49.5	59	35.8	0	1	292	0.00	29.999 
05:25	49.4	49.4	49.4	59	35.7	0	2	292	0.00	29.999 
05:30	49.4	49.4	49.4	59	35.7	0	3	292	0.00	29.999 
05:35	49.2	49.2	49.2	60	35.9	0	2	292	0.00	29.999 
05:40	49.2	49.2	49.2	60	35.9	1	4	292	0.00	29.999 
05:45	49.2	49.2	49.2	60	35.9	0	2	270	0.00	29.997 
05:50	49.2	49.2	49.2	60	35.9	0	2	270	0.00	29.997 
05:55	49.2	49.2	49.2	60	35.9	0	2	270	0.00	29.997 
06:00	49.1	49.1	49.1	61	36.2	0	1	270	0.00	29.997 
06:05	49.1	49.1	49.1	61	36.2	0	1	270	0.00	29.997 
06:10	48.9	48.9	48.9	61	36.0	0	1	270	0.00	29.997 
06:15	48.8	48.8	48.8	61	36.0	0	1	270	0.00	29.989 
06:20	48.6	48.6	48.6	62	36.2	0	1	270	0.00	29.989 
06:25	48.5	48.5	48.5	62	36.1	0	0	---	0.00	29.989 
06:30	48.3	48.3	48.3	63	36.3	0	0	---	0.00	29.982 
06:35	48.2	48.2	48.2	63	36.2	0	0	---	0.00	29.982 
06:40	48.2	48.2	48.2	63	36.2	0	0	---	0.00	29.982 
06:45	48.0	48.0	48.0	64	36.4	0	0	---	0.00	29.975 
06:50	47.9	47.9	47.9	64	36.3	0	0	---	0.00	29.975 
06:55	47.7	47.7	47.7	65	36.5	0	0	---	0.00	29.975 
07:00	47.7	47.7	47.7	66	36.9	0	0	---	0.00	29.981 
07:05	47.6	47.6	47.6	69	37.9	0	0	---	0.00	29.981 
07:10	47.4	47.4	47.4	71	38.5	0	1	270	0.00	29.981 
07:15	47.1	47.1	47.1	73	38.9	0	1	270	0.00	29.972 
07:20	47.0	47.0	47.0	72	38.4	0	3	248	0.00	29.972 
07:25	47.0	47.0	47.0	72	38.4	0	1	248	0.00	29.972 
07:30	47.0	47.0	47.0	70	37.7	0	2	248	0.00	29.970 
07:35	47.1	47.1	47.1	70	37.8	0	2	248	0.00	29.970 
07:40	47.3	47.3	47.3	69	37.7	0	1	248	0.00	29.970 
07:45	47.4	47.4	47.4	69	37.7	0	2	248	0.00	29.967 
07:50	47.6	47.6	47.6	69	37.9	0	0	---	0.00	29.967 
07:55	47.7	47.7	47.7	69	38.0	0	1	248	0.00	29.967 
08:00	47.9	47.9	47.9	69	38.2	0	1	248	0.00	29.971 
08:05	48.2	48.2	48.2	69	38.5	0	2	248	0.00	29.971 
08:10	48.5	48.5	48.5	68	38.4	0	3	248	0.00	29.971 
08:15	48.8	48.8	48.8	68	38.7	0	2	248	0.00	29.964 
08:20	49.1	49.1	49.1	67	38.6	0	3	248	0.00	29.964 
08:25	49.2	49.2	49.2	68	39.1	0	1	248	0.00	29.964 
08:30	49.4	49.4	49.4	67	38.9	0	2	248	0.00	29.959 
08:35	49.5	49.5	49.5	67	39.0	0	1	248	0.00	29.959 
08:40	49.8	49.8	49.8	65	38.5	0	2	248	0.00	29.959 
08:45	50.1	50.1	50.1	64	38.4	0	3	248	0.00	29.960 
08:50	50.1	50.1	50.1	64	38.4	0	3	248	0.00	29.960 
08:55	50.4	50.4	50.4	64	38.7	0	1	248	0.00	29.960 
09:00	50.7	50.7	50.7	63	38.6	0	2	248	0.00	29.956 
09:05	51.0	51.0	51.0	61	38.0	1	3	248	0.00	29.956 
09:10	51.3	51.3	51.3	61	38.3	0	2	248	0.00	29.956 
09:15	51.7	51.7	51.7	59	37.8	1	3	248	0.00	29.949 
09:20	52.0	52.0	52.0	59	38.1	0	2	248	0.00	29.949 
09:25	52.5	52.5	52.5	59	38.6	0	2	248	0.00	29.949 
09:30	52.8	52.8	52.8	57	38.0	0	1	248	0.00	29.944 
09:35	53.2	53.2	53.2	57	38.4	1	3	248	0.00	29.944 
09:40	53.3	53.3	53.3	56	38.0	0	3	248	0.00	29.944 
09:45	53.5	53.5	53.5	57	38.6	0	2	248	0.00	29.941 
09:50	53.6	53.6	53.6	56	38.3	0	2	248	0.00	29.941 
09:55	54.1	54.1	54.1	55	38.3	1	3	248	0.00	29.941 
10:00	54.7	54.7	54.7	56	39.3	1	3	338	0.00	29.938 
10:05	55.0	55.0	55.0	54	38.7	1	4	338	0.00	29.938 
10:10	55.1	55.1	55.1	53	38.3	1	3	270	0.00	29.938 
10:15	55.6	55.6	55.6	51	37.8	1	3	270	0.00	29.933 
10:20	56.0	56.0	56.0	50	37.6	1	4	270	0.00	29.933 
10:25	56.5	56.5	56.5	51	38.6	2	4	270	0.00	29.933 
10:30	56.5	56.5	56.5	48	37.0	2	4	248	0.00	29.929 
10:35	56.9	56.9	56.9	48	37.4	2	4	248	0.00	29.929 
10:40	57.2	57.2	57.2	46	36.6	3	6	248	0.00	29.929 
10:45	57.5	57.5	57.5	49	38.5	2	4	248	0.00	29.927 
10:50	57.6	57.6	57.6	46	37.0	3	5	270	0.00	29.927 
10:55	57.6	57.6	57.6	46	37.0	3	6	270	0.00	29.927 
11:00	57.8	57.8	57.8	47	37.7	3	6	315	0.00	29.929 
11:05	58.3	58.3	58.3	46	37.6	2	6	270	0.00	29.929 
11:10	58.7	58.7	58.7	46	38.0	2	5	248	0.00	29.929 
11:15	58.9	58.9	58.9	43	36.4	3	5	248	0.00	29.924 
11:20	58.6	58.6	58.6	43	36.2	2	6	292	0.00	29.924 
11:25	58.9	58.9	58.9	43	36.4	2	4	248	0.00	29.924 
11:30	58.7	58.7	58.7	42	35.7	4	9	270	0.00	29.922 
11:35	58.1	58.1	58.1	43	35.7	3	7	270	0.00	29.922 
11:40	58.1	58.1	58.1	36	31.3	2	6	315	0.00	29.922 
11:45	57.6	57.6	57.6	39	32.8	4	7	270	0.00	29.922 
11:50	58.7	58.7	58.7	40	34.4	3	5	248	0.00	29.922 
11:55	58.3	58.3	58.3	37	32.1	4	10	270	0.00	29.922 
12:00	58.3	58.3	58.3	37	32.1	3	7	270	0.00	29.920 
12:05	59.3	59.3	59.3	37	33.0	3	6	270	0.00	29.920 
12:10	59.8	59.8	59.8	31	29.1	4	6	270	0.00	29.920 
12:15	60.2	60.2	60.2	29	27.8	3	7	270	0.00	29.919 
12:20	60.5	60.5	60.5	28	27.2	4	9	270	0.00	29.919 
12:25	60.2	60.2	60.2	27	26.1	6	12	270	0.00	29.919 
12:30	60.5	60.5	60.5	29	28.1	3	7	270	0.00	29.914 
12:35	60.2	60.2	60.2	28	27.0	5	11	270	0.00	29.914 
12:40	59.5	59.5	59.5	29	27.2	4	7	292	0.00	29.914 
12:45	59.5	59.5	59.5	29	27.2	4	10	292	0.00	29.918 
12:50	59.6	59.6	59.6	29	27.3	3	7	270	0.00	29.918 
12:55	59.9	59.9	59.9	28	26.7	4	13	270	0.00	29.918 
13:00	59.3	59.3	59.3	27	25.3	4	9	315	0.00	29.918 
13:05	58.9	58.9	58.9	28	25.9	4	11	270	0.00	29.918 
13:10	59.2	59.2	59.2	28	26.1	4	7	292	0.00	29.918 
13:15	59.8	59.8	59.8	28	26.6	3	9	248	0.00	29.921 
13:20	59.6	59.6	59.6	27	25.6	5	11	270	0.00	29.921 
13:25	59.6	59.6	59.6	27	25.6	4	11	270	0.00	29.921 
13:30	59.5	59.5	59.5	27	25.5	5	12	270	0.00	29.920 
13:35	59.3	59.3	59.3	25	23.5	5	11	270	0.00	29.920 
13:40	59.5	59.5	59.5	25	23.7	3	12	315	0.00	29.920 
13:45	59.2	59.2	59.2	25	23.4	4	10	315	0.00	29.920 
13:50	59.5	59.5	59.5	26	24.6	4	11	292	0.00	29.920 
13:55	59.8	59.8	59.8	25	23.9	4	13	292	0.00	29.920 
14:00	59.8	59.8	59.8	24	22.9	5	11	270	0.00	29.917 
14:05	59.9	59.9	59.9	25	24.0	5	12	270	0.00	29.917 
14:10	60.1	60.1	60.1	25	24.2	4	10	270	0.00	29.917 
14:15	59.9	59.9	59.9	25	24.0	4	13	270	0.00	29.917 
14:20	60.2	60.2	60.2	24	23.3	4	8	270	0.00	29.917 
14:25	60.1	60.1	60.1	25	24.2	4	8	270	0.00	29.917 
14:30	59.8	59.8	59.8	24	22.9	5	10	270	0.00	29.915 
14:35	59.9	59.9	59.9	25	24.0	4	10	270	0.00	29.915 
14:40	60.4	60.4	60.4	25	24.4	4	9	270	0.00	29.915 
14:45	60.1	60.1	60.1	23	22.2	5	13	270	0.00	29.918 
14:50	59.6	59.6	59.6	21	19.6	6	12	270	0.00	29.918 
14:55	59.5	59.5	59.5	22	20.6	5	12	270	0.00	29.918 
15:00	59.6	59.6	59.6	21	19.6	5	11	270	0.00	29.916 
15:05	59.5	59.5	59.5	22	20.6	5	11	292	0.00	29.916 
15:10	59.5	59.5	59.5	22	20.6	5	16	315	0.00	29.916 
15:15	59.5	59.5	59.5	25	23.7	5	11	292	0.00	29.909 
15:20	59.6	59.6	59.6	21	19.6	6	11	270	0.00	29.909 
15:25	59.9	59.9	59.9	23	22.0	4	8	270	0.00	29.909 
15:30	59.5	59.5	59.5	21	19.5	4	10	270	0.00	29.915 
15:35	59.5	59.5	59.5	21	19.5	5	12	270	0.00	29.915 
15:40	59.6	59.6	59.6	21	19.6	3	7	270	0.00	29.915 
15:45	59.0	59.0	59.0	22	20.2	5	10	292	0.00	29.916 
15:50	59.2	59.2	59.2	21	19.3	6	11	270	0.00	29.916 
15:55	59.2	59.2	59.2	22	20.4	5	11	270	0.00	29.916 
16:00	59.3	59.3	59.3	21	19.4	5	12	270	0.00	29.908 
16:05	59.2	59.2	59.2	21	19.3	4	10	270	0.00	29.908 
16:10	59.6	59.6	59.6	22	20.7	3	5	292	0.00	29.908 
16:15	59.9	59.9	59.9	20	18.7	4	7	270	0.00	29.904 
16:20	59.8	59.8	59.8	22	20.9	5	10	292	0.00	29.904 
16:25	59.5	59.5	59.5	21	19.5	5	9	270	0.00	29.904 
16:30	59.3	59.3	59.3	21	19.4	5	13	270	0.00	29.894 
16:35	59.5	59.5	59.5	21	19.5	3	7	315	0.00	29.894 
16:40	59.6	59.6	59.6	22	20.7	3	9	315	0.00	29.894 
16:45	59.8	59.8	59.8	22	20.9	3	9	315	0.00	29.889 
16:50	59.8	59.8	59.8	20	18.7	5	11	315	0.00	29.889 
16:55	60.1	60.1	60.1	21	20.0	4	11	270	0.00	29.889 
17:00	60.4	60.4	60.4	20	19.2	6	12	270	0.00	29.887 
17:05	59.9	59.9	59.9	19	17.6	6	15	270	0.00	29.887 
17:10	59.8	59.8	59.8	20	18.7	5	10	292	0.00	29.887 
17:15	59.8	59.8	59.8	20	18.7	6	11	270	0.00	29.884 
17:20	59.8	59.8	59.8	19	17.5	4	8	315	0.00	29.884 
17:25	59.5	59.5	59.5	20	18.4	5	10	270	0.00	29.884 
17:30	59.6	59.6	59.6	20	18.5	4	9	315	0.00	29.877 
17:35	59.8	59.8	59.8	20	18.7	4	9	270	0.00	29.877 
17:40	59.6	59.6	59.6	20	18.5	4	10	270	0.00	29.877 
17:45	59.6	59.6	59.6	20	18.5	5	13	270	0.00	29.877 
17:50	59.6	59.6	59.6	21	19.6	5	11	270	0.00	29.877 
17:55	59.6	59.6	59.6	21	19.6	4	11	270	0.00	29.877 
18:00	59.6	59.6	59.6	22	20.7	3	9	270	0.00	29.877 
18:05	59.5	59.5	59.5	22	20.6	3	9	270	0.00	29.877 
18:10	59.5	59.5	59.5	21	19.5	4	10	270	0.00	29.877 
18:15	59.2	59.2	59.2	21	19.3	5	9	270	0.00	29.880 
18:20	59.0	59.0	59.0	22	20.2	4	7	270	0.00	29.880 
18:25	59.0	59.0	59.0	23	21.3	4	9	270	0.00	29.880 
18:30	58.9	58.9	58.9	23	21.2	2	9	270	0.00	29.879 
18:35	58.9	58.9	58.9	22	20.1	3	7	270	0.00	29.879 
18:40	58.6	58.6	58.6	23	20.9	4	9	270	0.00	29.879 
18:45	58.4	58.4	58.4	23	20.8	4	14	270	0.00	29.878 
18:50	58.3	58.3	58.3	23	20.7	4	10	270	0.00	29.878 
18:55	58.1	58.1	58.1	23	20.5	4	7	270	0.00	29.878 
19:00	58.0	58.0	58.0	24	21.4	3	10	270	0.00	29.882 
19:05	57.6	57.6	57.6	24	21.1	3	7	315	0.00	29.882 
19:10	57.5	57.5	57.5	25	22.0	2	6	315	0.00	29.882 
19:15	57.3	57.3	57.3	25	21.8	2	7	315	0.00	29.880 
19:20	57.2	57.2	57.2	25	21.7	3	7	292	0.00	29.880 
19:25	57.0	57.0	57.0	25	21.5	3	7	315	0.00	29.880 
19:30	56.9	56.9	56.9	25	21.5	1	4	315	0.00	29.880 
19:35	56.6	56.6	56.6	26	22.1	1	3	0	0.00	29.880 
19:40	56.3	56.3	56.3	26	21.9	2	6	315	0.00	29.880 
19:45	56.2	56.2	56.2	26	21.8	1	4	292	0.00	29.878 
19:50	56.0	56.0	56.0	26	21.6	1	5	248	0.00	29.878 
19:55	55.7	55.7	55.7	26	21.4	2	4	292	0.00	29.878 
20:00	55.6	55.6	55.6	27	22.2	2	4	292	0.00	29.878 
20:05	55.4	55.4	55.4	27	22.0	2	5	248	0.00	29.878 
20:10	55.3	55.3	55.3	27	21.9	2	7	315	0.00	29.878 
20:15	55.1	55.1	55.1	27	21.7	1	5	338	0.00	29.875 
20:20	54.8	54.8	54.8	27	21.5	0	2	338	0.00	29.875 
20:25	54.4	54.4	54.4	28	22.0	0	4	292	0.00	29.875 
20:30	54.1	54.1	54.1	28	21.7	0	3	292	0.00	29.877 
20:35	53.8	53.8	53.8	28	21.5	0	2	248	0.00	29.877 
20:40	53.6	53.6	53.6	27	20.4	0	2	315	0.00	29.877 
20:45	53.5	53.5	53.5	28	21.2	1	4	315	0.00	29.878 
20:50	53.6	53.6	53.6	27	20.4	1	4	292	0.00	29.878 
20:55	53.5	53.5	53.5	28	21.2	1	3	292	0.00	29.878 
21:00	53.3	53.3	53.3	27	20.2	1	4	292	0.00	29.878 
21:05	53.2	53.2	53.2	28	21.0	1	4	315	0.00	29.878 
21:10	52.9	52.9	52.9	28	20.7	1	4	270	0.00	29.878 
21:15	52.9	52.9	52.9	28	20.7	1	3	292	0.00	29.878 
21:20	52.6	52.6	52.6	29	21.3	1	4	292	0.00	29.878 
21:25	52.5	52.5	52.5	29	21.2	1	3	292	0.00	29.878 
21:30	52.3	52.3	52.3	29	21.0	1	3	315	0.00	29.887 
21:35	52.2	52.2	52.2	30	21.7	1	3	315	0.00	29.887 
21:40	51.9	51.9	51.9	30	21.5	0	1	315	0.00	29.887 
21:45	51.6	51.6	51.6	30	21.2	0	1	315	0.00	29.889 
21:50	51.4	51.4	51.4	31	21.8	0	1	315	0.00	29.889 
21:55	51.1	51.1	51.1	32	22.3	0	1	315	0.00	29.889 
22:00	50.7	50.7	50.7	33	22.7	0	1	315	0.00	29.892 
22:05	50.4	50.4	50.4	32	21.7	0	1	315	0.00	29.892 
22:10	50.2	50.2	50.2	32	21.5	0	2	315	0.00	29.892 
22:15	50.2	50.2	50.2	33	22.2	0	3	315	0.00	29.893 
22:20	50.2	50.2	50.2	32	21.5	1	3	315	0.00	29.893 
22:25	50.1	50.1	50.1	33	22.1	0	1	315	0.00	29.893 
22:30	49.8	49.8	49.8	33	21.9	0	1	315	0.00	29.896 
22:35	49.6	49.6	49.6	34	22.4	0	1	315	0.00	29.896 
22:40	49.4	49.4	49.4	34	22.2	0	1	315	0.00	29.896 
22:45	48.9	48.9	48.9	35	22.5	0	1	315	0.00	29.905 
22:50	48.8	48.8	48.8	35	22.4	0	1	315	0.00	29.905 
22:55	48.5	48.5	48.5	36	22.8	0	1	315	0.00	29.905 
23:00	48.3	48.3	48.3	36	22.6	0	3	315	0.00	29.906 
23:05	48.0	48.0	48.0	36	22.3	0	1	315	0.00	29.906 
23:10	47.9	47.9	47.9	37	22.9	0	1	315	0.00	29.906 
23:15	47.6	47.6	47.6	36	22.0	0	2	315	0.00	29.907 
23:20	47.4	47.4	47.4	36	21.8	0	1	315	0.00	29.907 
23:25	47.3	47.3	47.3	36	21.7	0	1	315	0.00	29.907 
23:30	47.0	47.0	47.0	36	21.4	0	1	315	0.00	29.909 
23:35	46.8	46.8	46.8	36	21.3	0	1	315	0.00	29.909 
23:40	46.7	46.7	46.7	36	21.2	0	2	315	0.00	29.909 
23:45	46.5	46.5	46.5	37	21.6	0	1	315	0.00	29.909 
23:50	46.2	46.2	46.2	37	21.4	0	1	315	0.00	29.909 
23:55	46.1	46.1	46.1	37	21.3	0	2	315	0.00	29.909 

CoCoRaHS
IN-AL-39
A2 Web Hosting
Creative Commons License
GoDaddy
search engine by freefind advanced

loaded 2018-11-19 18:42:33 • last modified 2010-11-18 10:43:29
Privacy PolicyDisclaimer
• wx.awcolley.com is powered by PmWiki v.2002016 •
• all content (unless otherwise noted) © 2018 A W Colley